createdAt,value
2019-04-28T00:00:53.004Z,93.50
2019-04-28T00:03:28.797Z,93.50
2019-04-28T00:05:57.317Z,93.60
2019-04-28T00:08:25.827Z,93.80
2019-04-28T00:10:54.305Z,94.30
2019-04-28T00:13:22.861Z,94.00
2019-04-28T00:15:51.683Z,93.90
2019-04-28T00:18:21.979Z,94.00
2019-04-28T00:21:07.554Z,94.30
2019-04-28T00:23:53.007Z,94.20
2019-04-28T00:26:36.721Z,94.20
2019-04-28T00:29:05.673Z,94.30
2019-04-28T00:31:34.660Z,94.30
2019-04-28T00:34:03.253Z,94.40
2019-04-28T00:36:31.797Z,94.70
2019-04-28T00:39:01.534Z,94.60
2019-04-28T00:41:30.921Z,94.60
2019-04-28T00:43:59.689Z,94.60
2019-04-28T00:46:32.746Z,94.60
2019-04-28T00:49:02.172Z,94.50
2019-04-28T00:51:31.366Z,94.30
2019-04-28T00:54:00.816Z,94.20
2019-04-28T00:56:31.585Z,93.90
2019-04-28T00:59:01.580Z,94.40
2019-04-28T01:01:40.684Z,94.20
2019-04-28T01:04:11.811Z,94.20
2019-04-28T01:06:42.895Z,94.00
2019-04-28T01:09:11.864Z,93.90
2019-04-28T01:11:41.462Z,93.90
2019-04-28T01:14:11.488Z,94.10
2019-04-28T01:16:50.030Z,94.30
2019-04-28T01:19:24.023Z,94.40
2019-04-28T01:22:30.153Z,94.70
2019-04-28T01:24:59.600Z,94.90
2019-04-28T01:27:50.613Z,95.20
2019-04-28T01:30:45.281Z,95.30
2019-04-28T01:33:33.453Z,95.40
2019-04-28T01:36:02.491Z,95.30
2019-04-28T01:38:30.924Z,95.20
2019-04-28T01:40:59.963Z,95.10
2019-04-28T01:43:31.247Z,94.90
2019-04-28T01:46:00.216Z,94.80
2019-04-28T01:48:29.853Z,94.70
2019-04-28T01:50:59.799Z,94.70
2019-04-28T01:53:28.417Z,94.80
2019-04-28T01:55:56.932Z,94.50
2019-04-28T01:58:25.356Z,94.50
2019-04-28T02:00:54.373Z,94.60
2019-04-28T02:03:23.201Z,94.80
2019-04-28T02:05:52.166Z,94.90
2019-04-28T02:08:20.623Z,94.40
2019-04-28T02:10:50.123Z,94.40
2019-04-28T02:13:19.894Z,94.40
2019-04-28T02:15:50.077Z,94.70
2019-04-28T02:18:19.917Z,94.70
2019-04-28T02:20:54.073Z,94.80
2019-04-28T02:23:26.750Z,95.00
2019-04-28T02:25:55.249Z,95.10
2019-04-28T02:28:24.154Z,95.20
2019-04-28T02:30:53.927Z,95.30
2019-04-28T02:33:23.071Z,95.60
2019-04-28T02:35:51.576Z,96.00
2019-04-28T02:38:20.982Z,96.10
2019-04-28T02:40:50.559Z,96.00
2019-04-28T02:43:20.831Z,96.20
2019-04-28T02:45:51.078Z,97.30
2019-04-28T02:48:24.241Z,97.70
2019-04-28T02:57:56.407Z,99.80
2019-04-28T03:00:24.957Z,99.90
2019-04-28T03:02:54.271Z,99.90
2019-04-28T03:05:23.174Z,99.90
2019-04-28T03:07:51.927Z,99.80
2019-04-28T03:10:21.581Z,99.30
2019-04-28T03:12:51.666Z,99.20
2019-04-28T03:15:20.657Z,98.90
2019-04-28T03:17:52.458Z,98.70
2019-04-28T03:20:21.126Z,98.70
2019-04-28T03:22:51.220Z,98.50
2019-04-28T03:25:36.501Z,98.70
2019-04-28T03:28:17.922Z,98.30
2019-04-28T03:31:22.067Z,98.60
2019-04-28T03:33:36.008Z,97.80
2019-04-28T03:36:07.925Z,97.70
2019-04-28T03:38:33.525Z,97.40
2019-04-28T03:41:02.034Z,97.60
2019-04-28T03:43:30.707Z,97.70
2019-04-28T03:46:04.571Z,97.90
2019-04-28T03:48:33.627Z,97.60
2019-04-28T03:51:02.499Z,98.10
2019-04-28T03:53:31.398Z,98.50
2019-04-28T03:56:01.586Z,98.40
2019-04-28T03:58:31.078Z,98.40
2019-04-28T04:01:02.648Z,98.10
2019-04-28T04:03:30.597Z,97.90
2019-04-28T04:06:00.756Z,98.00
2019-04-28T04:08:30.890Z,98.40
2019-04-28T04:11:25.066Z,98.70
2019-04-28T04:14:07.281Z,98.70
2019-04-28T04:16:50.072Z,98.80
2019-04-28T04:19:20.183Z,98.20
2019-04-28T04:21:50.585Z,98.10
2019-04-28T04:24:20.525Z,98.00
2019-04-28T04:26:50.560Z,98.00
2019-04-28T04:29:21.475Z,97.90
2019-04-28T04:31:51.202Z,97.70
2019-04-28T04:34:20.194Z,97.30
2019-04-28T04:36:50.894Z,97.10
2019-04-28T04:39:20.679Z,96.90
2019-04-28T04:41:50.434Z,96.80
2019-04-28T04:44:21.112Z,96.30
2019-04-28T04:46:50.857Z,95.90
2019-04-28T04:49:21.590Z,96.50
2019-04-28T04:51:50.842Z,96.00
2019-04-28T04:54:20.456Z,96.90
2019-04-28T04:56:50.104Z,96.70
2019-04-28T04:59:20.221Z,96.40
2019-04-28T05:01:56.578Z,96.80
2019-04-28T05:04:44.404Z,96.30
2019-04-28T05:07:12.946Z,96.70
2019-04-28T05:09:41.449Z,96.00
2019-04-28T05:12:09.951Z,95.70
2019-04-28T05:14:39.535Z,96.10
2019-04-28T05:17:08.246Z,96.50
2019-04-28T05:19:36.740Z,96.00
2019-04-28T05:22:05.693Z,96.30
2019-04-28T05:24:52.976Z,96.20
2019-04-28T05:27:22.169Z,95.60
2019-04-28T05:29:51.201Z,95.60
2019-04-28T05:32:20.549Z,95.30
2019-04-28T05:34:50.677Z,95.70
2019-04-28T05:37:21.188Z,95.50
2019-04-28T05:39:52.460Z,95.30
2019-04-28T05:42:20.089Z,95.20
2019-04-28T05:44:49.675Z,95.10
2019-04-28T05:47:20.320Z,95.10
2019-04-28T05:50:06.969Z,93.90
2019-04-28T05:52:54.740Z,93.80
2019-04-28T05:55:28.130Z,94.20
2019-04-28T05:58:09.791Z,94.30
2019-04-28T06:00:46.702Z,94.20
2019-04-28T06:03:16.502Z,94.00
2019-04-28T06:05:45.256Z,93.70
2019-04-28T06:08:20.264Z,93.60
2019-04-28T06:10:49.857Z,93.60
2019-04-28T06:13:20.216Z,94.20
2019-04-28T06:15:49.695Z,93.80
2019-04-28T06:18:18.411Z,94.10
2019-04-28T06:20:46.931Z,94.80
2019-04-28T06:23:15.466Z,94.10
2019-04-28T06:25:43.909Z,94.50
2019-04-28T06:28:12.458Z,94.10
2019-04-28T06:30:41.489Z,93.50
2019-04-28T06:33:10.010Z,90.80
2019-04-28T06:35:38.553Z,90.70
2019-04-28T06:38:07.053Z,88.90
2019-04-28T06:40:35.493Z,89.00
2019-04-28T06:43:03.980Z,88.70
2019-04-28T06:45:32.429Z,87.00
2019-04-28T06:48:01.040Z,82.90
2019-04-28T06:50:29.573Z,81.10
2019-04-28T06:52:58.057Z,82.00
2019-04-28T06:55:26.849Z,80.10
2019-04-28T06:57:55.452Z,77.00
2019-04-28T07:00:23.882Z,75.40
2019-04-28T07:02:52.377Z,76.30
2019-04-28T07:05:20.817Z,76.90
2019-04-28T07:07:49.798Z,73.90
2019-04-28T07:10:18.232Z,74.30
2019-04-28T07:12:47.155Z,72.70
2019-04-28T07:15:15.662Z,72.70
2019-04-28T07:17:44.581Z,71.90
2019-04-28T07:20:47.784Z,69.90
2019-04-28T07:23:16.444Z,69.70
2019-04-28T07:25:44.897Z,71.00
2019-04-28T07:28:13.390Z,70.30
2019-04-28T07:30:42.377Z,69.90
2019-04-28T07:33:11.293Z,69.20
2019-04-28T07:35:39.725Z,67.90
2019-04-28T07:38:08.232Z,68.00
2019-04-28T07:40:36.672Z,68.70
2019-04-28T07:43:05.157Z,69.40
2019-04-28T07:45:33.596Z,68.10
2019-04-28T07:48:02.098Z,68.70
2019-04-28T07:50:30.537Z,68.30
2019-04-28T07:53:27.296Z,68.40
2019-04-28T07:55:55.854Z,65.20
2019-04-28T07:58:24.348Z,66.10
2019-04-28T08:00:53.430Z,68.20
2019-04-28T08:03:22.349Z,69.30
2019-04-28T08:05:51.052Z,69.70
2019-04-28T08:08:19.539Z,69.20
2019-04-28T08:10:47.969Z,69.40
2019-04-28T08:13:16.448Z,67.20
2019-04-28T08:15:45.296Z,67.00
2019-04-28T08:18:13.780Z,68.10
2019-04-28T08:20:42.232Z,68.90
2019-04-28T08:23:10.765Z,67.20
2019-04-28T08:25:39.379Z,67.10
2019-04-28T08:28:07.873Z,69.00
2019-04-28T08:30:36.821Z,68.80
2019-04-28T08:33:42.945Z,69.50
2019-04-28T08:36:11.477Z,69.40
2019-04-28T08:38:39.960Z,69.10
2019-04-28T08:41:08.382Z,70.30
2019-04-28T08:43:36.865Z,69.20
2019-04-28T08:46:05.388Z,68.80
2019-04-28T08:48:33.936Z,72.20
2019-04-28T08:51:02.420Z,69.50
2019-04-28T08:53:31.345Z,70.60
2019-04-28T08:56:00.116Z,68.50
2019-04-28T08:58:28.840Z,68.30
2019-04-28T09:00:57.285Z,70.00
2019-04-28T09:03:27.068Z,68.30
2019-04-28T09:05:55.496Z,68.00
2019-04-28T09:08:24.492Z,67.60
2019-04-28T09:10:56.265Z,66.90
2019-04-28T09:13:25.205Z,66.50
2019-04-28T09:15:53.684Z,65.80
2019-04-28T09:18:22.177Z,65.90
2019-04-28T09:20:50.604Z,65.60
2019-04-28T09:23:19.516Z,64.80
2019-04-28T09:25:48.472Z,64.50
2019-04-28T09:28:17.404Z,64.40
2019-04-28T09:30:46.065Z,64.90
2019-04-28T09:33:14.704Z,65.60
2019-04-28T09:35:43.284Z,65.70
2019-04-28T09:38:11.845Z,65.00
2019-04-28T09:40:40.269Z,64.00
2019-04-28T09:43:22.604Z,63.20
2019-04-28T09:46:00.041Z,62.90
2019-04-28T09:48:28.947Z,62.30
2019-04-28T09:50:57.356Z,61.80
2019-04-28T09:53:25.916Z,60.40
2019-04-28T09:55:54.592Z,60.90
2019-04-28T09:58:23.102Z,60.20
2019-04-28T10:00:53.180Z,59.60
2019-04-28T10:03:21.623Z,58.80
2019-04-28T10:05:50.382Z,58.70
2019-04-28T10:08:18.853Z,59.30
2019-04-28T10:10:47.423Z,59.80
2019-04-28T10:13:16.430Z,58.70
2019-04-28T10:15:45.218Z,60.00
2019-04-28T10:18:14.969Z,60.10
2019-04-28T10:20:43.577Z,59.50
2019-04-28T10:23:12.652Z,58.90
2019-04-28T10:25:45.814Z,60.40
2019-04-28T10:28:14.237Z,60.40
2019-04-28T10:30:42.741Z,58.50
2019-04-28T10:33:12.840Z,57.20
2019-04-28T10:35:41.720Z,57.50
2019-04-28T10:38:10.252Z,57.20
2019-04-28T10:41:02.505Z,57.80
2019-04-28T10:43:31.063Z,56.90
2019-04-28T10:45:59.789Z,55.80
2019-04-28T10:48:28.476Z,56.20
2019-04-28T10:50:57.089Z,56.70
2019-04-28T10:53:25.631Z,57.30
2019-04-28T10:55:54.149Z,57.60
2019-04-28T10:58:22.716Z,59.20
2019-04-28T11:00:51.296Z,57.80
2019-04-28T11:03:19.820Z,56.70
2019-04-28T11:05:48.321Z,56.20
2019-04-28T11:08:34.902Z,57.40
2019-04-28T11:11:18.088Z,58.30
2019-04-28T11:13:47.134Z,57.80
2019-04-28T11:16:18.196Z,57.80
2019-04-28T11:18:46.683Z,57.80
2019-04-28T11:21:15.253Z,56.60
2019-04-28T11:23:46.953Z,55.60
2019-04-28T11:26:15.510Z,57.80
2019-04-28T11:28:44.058Z,57.00
2019-04-28T11:31:12.876Z,55.80
2019-04-28T11:33:48.534Z,56.20
2019-04-28T11:36:18.692Z,55.30
2019-04-28T11:38:47.540Z,56.10
2019-04-28T11:41:16.211Z,56.50
2019-04-28T11:43:44.723Z,57.90
2019-04-28T11:46:15.645Z,58.10
2019-04-28T11:48:44.528Z,56.80
2019-04-28T11:51:13.537Z,57.20
2019-04-28T11:53:42.231Z,58.20
2019-04-28T11:56:10.877Z,56.60
2019-04-28T11:58:41.095Z,56.90
2019-04-28T12:01:11.501Z,55.40
2019-04-28T12:03:39.961Z,54.50
2019-04-28T12:06:11.726Z,55.50
2019-04-28T12:08:40.288Z,54.50
2019-04-28T12:11:27.085Z,52.60
2019-04-28T12:14:05.954Z,53.10
2019-04-28T12:16:53.928Z,54.30
2019-04-28T12:19:44.449Z,54.30
2019-04-28T12:22:13.322Z,53.10
2019-04-28T12:24:42.268Z,53.10
2019-04-28T12:27:10.937Z,54.40
2019-04-28T12:29:39.531Z,53.90
2019-04-28T12:32:08.162Z,53.70
2019-04-28T12:34:36.699Z,54.40
2019-04-28T12:37:06.544Z,52.00
2019-04-28T12:39:35.440Z,52.40
2019-04-28T12:42:04.360Z,51.70
2019-04-28T12:44:35.584Z,52.60
2019-04-28T12:47:06.007Z,53.10
2019-04-28T12:49:56.813Z,52.00
2019-04-28T12:52:25.884Z,52.10
2019-04-28T12:54:57.522Z,51.70
2019-04-28T12:57:27.030Z,52.30
2019-04-28T13:00:02.695Z,52.20
2019-04-28T13:02:49.038Z,52.30
2019-04-28T13:05:19.812Z,52.60
2019-04-28T13:07:51.106Z,52.20
2019-04-28T13:10:20.164Z,51.00
2019-04-28T13:12:48.891Z,51.20
2019-04-28T13:15:19.949Z,51.10
2019-04-28T13:17:50.654Z,51.00
2019-04-28T13:20:19.561Z,50.80
2019-04-28T13:22:50.282Z,50.40
2019-04-28T13:25:19.037Z,51.00
2019-04-28T13:27:48.063Z,51.70
2019-04-28T13:30:16.698Z,51.40
2019-04-28T13:32:45.666Z,50.60
2019-04-28T13:35:15.736Z,52.00
2019-04-28T13:37:44.652Z,50.60
2019-04-28T13:40:19.229Z,49.90
2019-04-28T13:42:48.440Z,49.40
2019-04-28T13:45:20.946Z,50.20
2019-04-28T13:47:50.352Z,49.90
2019-04-28T13:50:30.489Z,48.50
2019-04-28T13:52:59.618Z,48.20
2019-04-28T13:56:05.980Z,49.40
2019-04-28T13:58:43.780Z,49.30
2019-04-28T14:01:30.768Z,49.90
2019-04-28T14:04:21.608Z,50.70
2019-04-28T14:06:56.676Z,49.90
2019-04-28T14:09:25.369Z,50.60
2019-04-28T14:11:54.524Z,49.60
2019-04-28T14:14:23.521Z,50.70
2019-04-28T14:16:52.283Z,50.70
2019-04-28T14:19:21.047Z,51.20
2019-04-28T14:21:50.201Z,50.70
2019-04-28T14:24:19.078Z,50.70
2019-04-28T14:26:47.883Z,51.10
2019-04-28T14:29:19.117Z,51.60
2019-04-28T14:31:49.613Z,51.50
2019-04-28T14:34:18.549Z,51.40
2019-04-28T14:36:47.224Z,51.70
2019-04-28T14:39:15.919Z,51.90
2019-04-28T14:41:44.588Z,49.40
2019-04-28T14:44:17.417Z,50.70
2019-04-28T14:46:43.911Z,49.30
2019-04-28T14:49:13.127Z,49.60
2019-04-28T14:51:41.742Z,49.50
2019-04-28T14:54:10.888Z,49.90
2019-04-28T14:56:39.753Z,50.20
2019-04-28T14:59:12.328Z,50.70
2019-04-28T15:02:09.653Z,51.00
2019-04-28T15:04:57.008Z,50.80
2019-04-28T15:07:47.899Z,50.90
2019-04-28T15:10:41.299Z,50.80
2019-04-28T15:13:11.618Z,51.10
2019-04-28T15:15:42.221Z,53.20
2019-04-28T15:18:13.075Z,51.50
2019-04-28T15:20:43.437Z,50.40
2019-04-28T15:23:13.659Z,50.30
2019-04-28T15:25:44.303Z,50.70
2019-04-28T15:28:16.114Z,50.90
2019-04-28T15:30:46.237Z,50.30
2019-04-28T15:33:17.300Z,50.30
2019-04-28T15:35:48.965Z,50.10
2019-04-28T15:38:19.298Z,51.10
2019-04-28T15:40:49.403Z,51.60
2019-04-28T15:43:19.881Z,51.40
2019-04-28T15:45:50.101Z,51.70
2019-04-28T15:48:20.612Z,51.50
2019-04-28T15:50:51.294Z,51.10
2019-04-28T15:53:21.504Z,52.00
2019-04-28T15:56:19.722Z,52.20
2019-04-28T15:58:50.350Z,51.10
2019-04-28T16:01:21.159Z,51.60
2019-04-28T16:03:51.260Z,51.20
2019-04-28T16:06:21.621Z,51.50
2019-04-28T16:08:54.897Z,51.00
2019-04-28T16:11:28.714Z,50.80
2019-04-28T16:13:57.568Z,50.90
2019-04-28T16:16:27.761Z,51.60
2019-04-28T16:18:57.902Z,51.60
2019-04-28T16:21:27.618Z,51.30
2019-04-28T16:23:58.499Z,52.00
2019-04-28T16:26:28.515Z,52.00
2019-04-28T16:28:58.892Z,52.70
2019-04-28T16:31:28.926Z,53.00
2019-04-28T16:33:59.126Z,52.70
2019-04-28T16:36:28.699Z,52.10
2019-04-28T16:38:58.651Z,52.80
2019-04-28T16:41:31.798Z,53.80
2019-04-28T16:44:05.737Z,53.40
2019-04-28T16:46:35.429Z,53.10
2019-04-28T16:49:06.061Z,53.40
2019-04-28T16:51:36.841Z,53.20
2019-04-28T16:54:07.257Z,52.90
2019-04-28T16:56:49.290Z,53.30
2019-04-28T16:59:50.137Z,53.70
2019-04-28T17:02:31.537Z,53.50
2019-04-28T17:05:02.607Z,54.80
2019-04-28T17:07:33.888Z,54.10
2019-04-28T17:10:04.305Z,54.40
2019-04-28T17:12:34.449Z,54.40
2019-04-28T17:15:02.945Z,54.50
2019-04-28T17:17:31.432Z,54.80
2019-04-28T17:20:00.581Z,54.90
2019-04-28T17:22:29.864Z,56.30
2019-04-28T17:24:58.429Z,55.90
2019-04-28T17:27:26.957Z,56.90
2019-04-28T17:29:55.437Z,56.50
2019-04-28T17:32:23.968Z,56.40
2019-04-28T17:34:52.452Z,56.30
2019-04-28T17:37:21.263Z,56.10
2019-04-28T17:39:50.160Z,55.80
2019-04-28T17:42:18.680Z,56.00
2019-04-28T17:44:47.160Z,55.90
2019-04-28T17:47:17.388Z,57.20
2019-04-28T17:49:46.328Z,56.20
2019-04-28T17:52:15.702Z,56.60
2019-04-28T17:54:44.873Z,56.80
2019-04-28T17:57:13.284Z,56.60
2019-04-28T17:59:41.877Z,56.80
2019-04-28T18:02:32.602Z,56.90
2019-04-28T18:05:18.688Z,57.70
2019-04-28T18:07:48.041Z,58.10
2019-04-28T18:10:17.003Z,58.80
2019-04-28T18:12:45.407Z,58.90
2019-04-28T18:15:34.930Z,60.10
2019-04-28T18:18:08.602Z,61.90
2019-04-28T18:20:37.080Z,62.80
2019-04-28T18:23:05.508Z,64.70
2019-04-28T18:25:34.452Z,66.00
2019-04-28T18:28:02.883Z,66.50
2019-04-28T18:30:33.823Z,67.60
2019-04-28T18:33:24.341Z,68.60
2019-04-28T18:35:57.652Z,69.00
2019-04-28T18:38:53.502Z,69.10
2019-04-28T18:41:39.878Z,69.80
2019-04-28T18:44:20.246Z,69.90
2019-04-28T18:46:48.849Z,69.90
2019-04-28T18:49:17.268Z,70.40
2019-04-28T18:51:46.388Z,71.00
2019-04-28T18:54:14.828Z,70.60
2019-04-28T18:56:43.360Z,70.90
2019-04-28T18:59:12.900Z,71.90
2019-04-28T19:02:01.441Z,71.70
2019-04-28T19:04:31.141Z,71.60
2019-04-28T19:07:05.124Z,71.50
2019-04-28T19:09:51.169Z,72.30
2019-04-28T19:12:25.293Z,72.40
2019-04-28T19:15:16.225Z,73.00
2019-04-28T19:17:52.108Z,73.60
2019-04-28T19:20:21.853Z,75.10
2019-04-28T19:22:52.155Z,76.60
2019-04-28T19:25:21.819Z,77.70
2019-04-28T19:27:51.679Z,78.10
2019-04-28T19:30:22.212Z,78.70
2019-04-28T19:32:52.339Z,79.80
2019-04-28T19:35:22.320Z,80.70
2019-04-28T19:37:52.820Z,80.70
2019-04-28T19:40:22.894Z,80.20
2019-04-28T19:42:53.555Z,81.10
2019-04-28T19:45:23.398Z,81.20
2019-04-28T19:47:53.558Z,82.10
2019-04-28T19:50:23.791Z,84.20
2019-04-28T19:52:56.478Z,84.80
2019-04-28T19:55:30.085Z,84.60
2019-04-28T19:58:09.322Z,86.20
2019-04-28T20:00:44.234Z,86.40
2019-04-28T20:03:14.133Z,86.10
2019-04-28T20:06:01.301Z,87.50
2019-04-28T20:08:31.151Z,88.20
2019-04-28T20:11:00.747Z,87.20
2019-04-28T20:13:31.568Z,85.70
2019-04-28T20:16:01.887Z,85.60
2019-04-28T20:18:31.779Z,86.00
2019-04-28T20:21:02.240Z,86.10
2019-04-28T20:23:32.629Z,87.20
2019-04-28T20:26:03.523Z,86.90
2019-04-28T20:28:36.242Z,87.90
2019-04-28T20:31:05.969Z,86.70
2019-04-28T20:33:35.923Z,86.70
2019-04-28T20:36:11.502Z,87.30
2019-04-28T20:38:41.830Z,87.50
2019-04-28T20:41:21.948Z,90.00
2019-04-28T20:43:52.249Z,90.80
2019-04-28T20:46:21.542Z,91.00
2019-04-28T20:48:50.606Z,91.30
2019-04-28T20:51:20.077Z,92.20
2019-04-28T20:53:49.233Z,92.60
2019-04-28T20:56:17.751Z,93.00
2019-04-28T20:58:46.233Z,93.40
2019-04-28T21:01:14.665Z,93.70
2019-04-28T21:03:43.569Z,93.80
2019-04-28T21:06:12.434Z,94.70
2019-04-28T21:08:41.089Z,95.30
2019-04-28T21:11:09.521Z,95.90
2019-04-28T21:13:38.425Z,96.60
2019-04-28T21:16:06.909Z,97.40
2019-04-28T21:18:35.452Z,97.90
2019-04-28T21:21:04.013Z,98.40
2019-04-28T21:23:32.433Z,98.90
2019-04-28T21:26:00.957Z,99.80
2019-04-28T21:28:30.171Z,99.90
2019-04-28T21:30:58.676Z,99.90
2019-04-28T21:33:27.102Z,99.90
2019-04-28T21:35:55.602Z,99.90
2019-04-28T21:38:24.056Z,99.90
2019-04-28T21:40:52.929Z,99.90
2019-04-28T21:43:46.719Z,99.90
2019-04-28T21:46:23.717Z,99.90
2019-04-28T21:48:56.352Z,99.90
2019-04-28T21:51:24.845Z,99.90
2019-04-28T21:53:53.665Z,99.90
2019-04-28T21:56:22.713Z,99.90
2019-04-28T21:58:51.198Z,99.90
2019-04-28T22:01:21.907Z,99.90
2019-04-28T22:03:50.340Z,99.90
2019-04-28T22:06:18.837Z,99.90
2019-04-28T22:08:47.275Z,99.90
2019-04-28T22:11:15.776Z,99.90
2019-04-28T22:13:44.196Z,99.90
2019-04-28T22:16:12.698Z,99.90
2019-04-28T22:18:41.192Z,99.90
2019-04-28T22:21:10.163Z,99.90
2019-04-28T22:24:09.881Z,99.90
2019-04-28T22:26:45.716Z,99.90
2019-04-28T22:29:14.166Z,99.90
2019-04-28T22:31:43.515Z,99.90
2019-04-28T22:34:13.429Z,99.90
2019-04-28T22:36:42.433Z,99.90
2019-04-28T22:39:11.173Z,99.90
2019-04-28T22:41:39.669Z,99.90
2019-04-28T22:44:08.710Z,99.90
2019-04-28T22:46:37.297Z,99.90
2019-04-28T22:49:06.353Z,99.90
2019-04-28T22:51:34.881Z,99.90
2019-04-28T22:54:09.409Z,99.90
2019-04-28T22:56:43.445Z,99.90
2019-04-28T22:59:37.012Z,99.90
2019-04-28T23:02:16.812Z,99.90
2019-04-28T23:04:51.709Z,99.90
2019-04-28T23:07:20.304Z,99.90
2019-04-28T23:09:48.737Z,99.90
2019-04-28T23:12:17.230Z,99.90
2019-04-28T23:14:45.664Z,99.90
2019-04-28T23:17:16.126Z,99.90
2019-04-28T23:19:44.618Z,99.90
2019-04-28T23:22:18.929Z,99.90
2019-04-28T23:24:47.360Z,99.90
2019-04-28T23:27:15.845Z,99.90
2019-04-28T23:29:44.290Z,99.90
2019-04-28T23:32:13.185Z,99.90
2019-04-28T23:34:41.630Z,99.90
2019-04-28T23:37:10.128Z,99.90
2019-04-28T23:39:38.560Z,99.90
2019-04-28T23:42:29.340Z,99.90
2019-04-28T23:44:57.872Z,99.90
2019-04-28T23:47:26.434Z,99.90
2019-04-28T23:49:54.961Z,99.90
2019-04-28T23:52:32.742Z,99.90
2019-04-28T23:55:02.949Z,99.90
2019-04-28T23:57:31.433Z,99.90
